»·PEaware :: N716TH L52-L88

N716TH :: L52-L88

FLIGHT INFORMATION

Flight Status: Arrived
Operator: Privately registered:
United States
More flights under this callsign
Pilot: Danny R. (17997)
Aircraft: CESSNA 172 SKYHAWK
(C172)
More flights by this aircraft type
Origin: L52 Oceano Co
United States
Destination: L88 New Cuyama
United States
More flights between these airports :: More routes between these airports
Route:
File this flight plan on PilotEdge
Remarks:
Altitude:
(Current/Filed)
7,500ft
Speed:
(Current/Filed)
100kts
Departed: 30-Jan-18 12:58 PM
Arrived: 30-Jan-18 01:53 PM
Distance/Time
Traveled:
47nm/0:55
Distance/Time
To Go:
Arrived

Flight Plot

Page will automatically refresh every two minutes.


Map Options




Map Legend


Flown Route
Filed Route
Departure Airport
Arrival Airport
Navaid (VOR, NDB)
Fix

Horizontal Profiles

Position Reports

Time Latitude Longitude Heading Altitude Ground
Speed
30-Jan-18 12:52 35.102403 -120.622827 214 18ft 0kts
30-Jan-18 12:53 35.101986 -120.622264 153 18ft 6kts
30-Jan-18 12:54 35.101788 -120.622345 209 18ft 6kts
30-Jan-18 12:55 35.099590 -120.619742 164 18ft 7kts
30-Jan-18 12:56 35.099433 -120.619561 53 18ft 0kts
30-Jan-18 12:57 35.099433 -120.619561 53 18ft 0kts
30-Jan-18 12:58 35.099433 -120.619561 53 18ft 0kts
30-Jan-18 12:59 35.099433 -120.619561 53 18ft 0kts
30-Jan-18 13:00 35.099433 -120.619561 53 18ft 0kts
30-Jan-18 13:01 35.099433 -120.619561 53 18ft 0kts
30-Jan-18 13:02 35.099460 -120.619523 50 18ft 0kts
30-Jan-18 13:03 35.099850 -120.619308 335 18ft 9kts
30-Jan-18 13:04 35.109471 -120.637720 300 586ft 80kts
30-Jan-18 13:05 35.096567 -120.650872 194 1046ft 88kts
30-Jan-18 13:06 35.083453 -120.629544 119 1089ft 84kts
30-Jan-18 13:07 35.071972 -120.602535 107 1263ft 91kts
30-Jan-18 13:08 35.076268 -120.573400 83 2156ft 84kts
30-Jan-18 13:09 35.080660 -120.545186 78 2975ft 83kts
30-Jan-18 13:10 35.085700 -120.517832 78 3770ft 82kts
30-Jan-18 13:11 35.090779 -120.490833 71 4527ft 81kts
30-Jan-18 13:12 35.095638 -120.464263 84 5242ft 80kts
30-Jan-18 13:13 35.096622 -120.437246 88 5921ft 79kts
30-Jan-18 13:14 35.096764 -120.410469 89 6565ft 77kts
30-Jan-18 13:15 35.096709 -120.384889 89 7064ft 74kts
30-Jan-18 13:16 35.096560 -120.354991 90 7208ft 98kts
30-Jan-18 13:17 35.096443 -120.327716 90 7486ft 88kts
30-Jan-18 13:18 35.096306 -120.296620 90 7501ft 93kts
30-Jan-18 13:19 35.096169 -120.264778 90 7505ft 94kts
30-Jan-18 13:20 35.096033 -120.232815 90 7503ft 94kts
30-Jan-18 13:21 35.095891 -120.200850 90 7486ft 94kts
30-Jan-18 13:22 35.095750 -120.169605 90 7513ft 91kts
30-Jan-18 13:23 35.095582 -120.138168 90 7513ft 92kts
30-Jan-18 13:24 35.095415 -120.106791 90 7507ft 93kts
30-Jan-18 13:25 35.095245 -120.074865 90 7510ft 94kts
30-Jan-18 13:26 35.095064 -120.042886 90 7507ft 94kts
30-Jan-18 13:27 35.094873 -120.012623 90 7505ft 94kts
30-Jan-18 13:28 35.094671 -119.980495 90 7503ft 94kts
30-Jan-18 13:29 35.094465 -119.948445 90 7499ft 94kts
30-Jan-18 13:30 35.094257 -119.916276 90 7496ft 94kts
30-Jan-18 13:31 35.093711 -119.884166 91 7494ft 94kts
30-Jan-18 13:32 35.083400 -119.855750 128 7461ft 83kts
30-Jan-18 13:33 35.069805 -119.836901 133 7081ft 79kts
30-Jan-18 13:34 35.054201 -119.817118 134 6382ft 82kts
30-Jan-18 13:35 35.038311 -119.797342 133 5679ft 82kts
30-Jan-18 13:36 35.023269 -119.778678 133 4988ft 76kts
30-Jan-18 13:37 35.008307 -119.760260 135 4231ft 83kts
30-Jan-18 13:38 34.992171 -119.743253 141 3602ft 76kts
30-Jan-18 13:39 34.975897 -119.729260 147 3239ft 66kts
30-Jan-18 13:40 34.963569 -119.711501 102 3334ft 70kts
30-Jan-18 13:41 34.953941 -119.691806 106 3301ft 73kts
30-Jan-18 13:42 34.949498 -119.672896 108 3175ft 68kts
30-Jan-18 13:43 34.942886 -119.646993 105 3305ft 68kts
30-Jan-18 13:44 34.930281 -119.650555 250 3027ft 63kts
30-Jan-18 13:45 34.933833 -119.670436 294 2564ft 67kts
30-Jan-18 13:46 34.939638 -119.684789 293 2207ft 59kts
30-Jan-18 13:47 34.946343 -119.711352 224 2955ft 70kts
30-Jan-18 13:48 34.928959 -119.710415 109 3261ft 84kts
30-Jan-18 13:49 34.924271 -119.687897 110 3258ft 84kts
30-Jan-18 13:50 34.918283 -119.662160 83 3253ft 70kts
30-Jan-18 13:51 34.931010 -119.661427 290 2747ft 59kts
30-Jan-18 13:52 34.938021 -119.680857 296 2208ft 55kts
30-Jan-18 13:53 34.947029 -119.702609 285 2611ft 80kts
30-Jan-18 13:54 34.930652 -119.712949 132 3059ft 82kts
30-Jan-18 13:55 34.921471 -119.686147 106 3080ft 85kts
30-Jan-18 13:56 34.917544 -119.661683 51 3000ft 68kts
30-Jan-18 13:57 34.931560 -119.659144 277 2787ft 60kts
30-Jan-18 13:58 34.937565 -119.679630 294 2237ft 59kts
30-Jan-18 13:59 34.942505 -119.691239 355 2207ft 8kts
30-Jan-18 14:00 34.942599 -119.690512 29 2207ft 0kts
30-Jan-18 14:01 34.942599 -119.690512 29 2207ft 0kts
30-Jan-18 14:02 34.942599 -119.690512 29 2207ft 0kts
30-Jan-18 14:03 34.942599 -119.690512 29 2207ft 0kts

Navigation Log

Ident Type
Flight plan parsing failed, navigation log unavailable